Terminal Aerodrome Forecast
Issued by NWS

Home | Current Version | Previous Version | Graphics & Text | Print | Product List | Glossary On
Versions: 1 2 3 4 5 6 7 8 9 10 11 12 13 14 15 16 17 18
600
FTUS43 KGRB 191732
TAFAUW
TAF
KAUW 191732Z 1918/2018 25009G15KT P6SM SKC
     FM192100 21006KT P6SM SKC
     FM200300 19005KT P6SM SKC WS020/22035KT
     FM201100 19005KT P6SM SKC
     FM201700 19008G15KT P6SM SKC=

USA.gov is the U.S. government's official web portal to all federal, state and local government web resources and services.